createdAt,value
2017-11-03T00:00:05.114Z,21.8
2017-11-03T00:02:07.415Z,21.8
2017-11-03T00:04:05.391Z,21.8
2017-11-03T00:06:05.189Z,21.8
2017-11-03T00:08:04.957Z,21.8
2017-11-03T00:10:05.256Z,21.8
2017-11-03T00:12:08.026Z,21.8
2017-11-03T00:14:05.248Z,21.8
2017-11-03T00:16:04.977Z,21.8
2017-11-03T00:18:07.452Z,21.8
2017-11-03T00:20:05.275Z,21.8
2017-11-03T00:22:05.120Z,21.8
2017-11-03T00:24:04.822Z,21.8
2017-11-03T00:26:04.799Z,21.8
2017-11-03T00:28:04.756Z,21.8
2017-11-03T00:30:05.650Z,21.8
2017-11-03T00:32:13.080Z,21.8
2017-11-03T00:34:04.802Z,21.8
2017-11-03T00:36:08.061Z,21.8
2017-11-03T00:38:04.727Z,21.8
2017-11-03T00:40:05.356Z,21.8
2017-11-03T00:42:05.038Z,21.8
2017-11-03T00:44:04.790Z,21.8
2017-11-03T00:46:05.157Z,21.8
2017-11-03T00:48:04.936Z,21.8
2017-11-03T00:50:07.174Z,21.8
2017-11-03T00:52:07.988Z,21.8
2017-11-03T00:54:04.753Z,21.8
2017-11-03T00:56:05.455Z,21.8
2017-11-03T00:58:04.743Z,21.8
2017-11-03T01:00:05.482Z,21.8
2017-11-03T01:02:05.335Z,21.7
2017-11-03T01:04:05.026Z,21.7
2017-11-03T01:06:04.784Z,21.7
2017-11-03T01:08:08.064Z,21.7
2017-11-03T01:10:04.737Z,21.7
2017-11-03T01:12:05.433Z,21.7
2017-11-03T01:14:07.679Z,21.7
2017-11-03T01:16:05.340Z,21.7
2017-11-03T01:18:05.315Z,21.7
2017-11-03T01:20:05.099Z,21.7
2017-11-03T01:22:04.808Z,21.7
2017-11-03T01:24:08.037Z,21.7
2017-11-03T01:26:07.328Z,21.7
2017-11-03T01:28:04.984Z,21.7
2017-11-03T01:30:04.690Z,21.7
2017-11-03T01:32:05.008Z,21.7
2017-11-03T01:34:04.725Z,21.7
2017-11-03T01:36:07.975Z,21.7
2017-11-03T01:38:07.416Z,21.7
2017-11-03T01:40:05.100Z,21.7
2017-11-03T01:42:04.812Z,21.7
2017-11-03T01:44:05.497Z,21.7
2017-11-03T01:46:05.282Z,21.7
2017-11-03T01:48:05.013Z,21.7
2017-11-03T01:50:04.724Z,21.7
2017-11-03T01:52:05.440Z,21.7
2017-11-03T01:54:05.183Z,21.7
2017-11-03T01:56:08.058Z,21.7
2017-11-03T01:58:04.810Z,21.7
2017-11-03T02:00:05.091Z,21.6
2017-11-03T02:02:05.375Z,21.6
2017-11-03T02:04:05.094Z,21.6
2017-11-03T02:06:05.395Z,21.7
2017-11-03T02:08:07.721Z,21.6
2017-11-03T02:10:05.538Z,21.6
2017-11-03T02:12:07.794Z,21.6
2017-11-03T02:14:10.643Z,21.6
2017-11-03T02:16:15.448Z,21.6
2017-11-03T02:18:07.902Z,21.6
2017-11-03T02:20:13.338Z,21.6
2017-11-03T02:22:07.639Z,21.6
2017-11-03T02:24:05.300Z,21.6
2017-11-03T02:26:05.057Z,21.6
2017-11-03T02:28:07.285Z,21.6
2017-11-03T02:30:05.074Z,21.6
2017-11-03T02:32:09.826Z,21.6
2017-11-03T02:34:08.003Z,21.6
2017-11-03T02:36:04.700Z,21.6
2017-11-03T02:38:05.388Z,21.6
2017-11-03T02:40:04.689Z,21.6
2017-11-03T02:42:05.407Z,21.6
2017-11-03T02:44:05.087Z,21.6
2017-11-03T02:46:12.358Z,21.6
2017-11-03T02:48:04.987Z,21.6
2017-11-03T02:50:04.649Z,21.5
2017-11-03T02:52:07.922Z,21.5
2017-11-03T02:54:05.659Z,21.5
2017-11-03T02:56:05.403Z,21.5
2017-11-03T02:58:05.194Z,21.5
2017-11-03T03:00:09.952Z,21.5
2017-11-03T03:02:07.214Z,21.5
2017-11-03T03:04:04.891Z,21.5
2017-11-03T03:06:07.628Z,21.6
2017-11-03T03:08:07.946Z,21.5
2017-11-03T03:10:07.690Z,21.6
2017-11-03T03:12:07.415Z,21.5
2017-11-03T03:14:05.172Z,21.6
2017-11-03T03:16:07.433Z,21.6
2017-11-03T03:18:05.357Z,21.5
2017-11-03T03:20:05.099Z,21.5
2017-11-03T03:22:07.341Z,21.5
2017-11-03T03:24:05.057Z,21.5
2017-11-03T03:26:07.322Z,21.5
2017-11-03T03:28:05.114Z,21.5
2017-11-03T03:30:04.789Z,21.5
2017-11-03T03:32:05.501Z,21.5
2017-11-03T03:34:05.189Z,21.5
2017-11-03T03:36:04.875Z,21.5
2017-11-03T03:38:05.656Z,21.5
2017-11-03T03:40:05.365Z,21.5
2017-11-03T03:42:05.100Z,21.5
2017-11-03T03:44:12.418Z,21.5
2017-11-03T03:46:05.156Z,21.5
2017-11-03T03:48:07.365Z,21.5
2017-11-03T03:50:05.771Z,21.5
2017-11-03T03:52:05.485Z,21.5
2017-11-03T03:54:05.182Z,21.5
2017-11-03T03:56:05.443Z,21.4
2017-11-03T03:58:07.663Z,21.4
2017-11-03T04:00:04.900Z,21.4
2017-11-03T04:02:07.232Z,21.4
2017-11-03T04:04:10.110Z,21.4
2017-11-03T04:06:07.357Z,21.4
2017-11-03T04:08:05.078Z,21.4
2017-11-03T04:10:04.774Z,21.4
2017-11-03T04:12:05.554Z,21.4
2017-11-03T04:14:05.357Z,21.4
2017-11-03T04:16:07.609Z,21.4
2017-11-03T04:18:05.567Z,21.4
2017-11-03T04:20:05.280Z,21.4
2017-11-03T04:22:05.535Z,21.4
2017-11-03T04:24:05.246Z,21.4
2017-11-03T04:26:05.050Z,21.4
2017-11-03T04:28:05.279Z,21.4
2017-11-03T04:30:05.025Z,21.4
2017-11-03T04:32:04.826Z,21.4
2017-11-03T04:34:05.121Z,21.4
2017-11-03T04:36:04.867Z,21.4
2017-11-03T04:38:05.699Z,21.4
2017-11-03T04:40:07.904Z,21.4
2017-11-03T04:42:04.744Z,21.4
2017-11-03T04:44:05.094Z,21.4
2017-11-03T04:46:07.392Z,21.4
2017-11-03T04:48:04.658Z,21.4
2017-11-03T04:50:05.017Z,21.4
2017-11-03T04:52:05.329Z,21.4
2017-11-03T04:54:05.182Z,21.4
2017-11-03T04:56:04.638Z,21.4
2017-11-03T04:58:07.478Z,21.4
2017-11-03T05:00:05.269Z,21.4
2017-11-03T05:02:05.002Z,21.4
2017-11-03T05:04:04.726Z,21.4
2017-11-03T05:06:05.015Z,21.5
2017-11-03T05:08:04.862Z,21.4
2017-11-03T05:10:08.147Z,21.5
2017-11-03T05:12:04.898Z,21.5
2017-11-03T05:14:07.183Z,21.5
2017-11-03T05:16:04.905Z,21.5
2017-11-03T05:18:05.384Z,21.5
2017-11-03T05:20:05.387Z,21.5
2017-11-03T05:22:10.747Z,21.5
2017-11-03T05:24:05.101Z,21.5
2017-11-03T05:26:05.293Z,21.5
2017-11-03T05:28:05.518Z,21.6
2017-11-03T05:30:05.299Z,21.6
2017-11-03T05:32:08.173Z,21.6
2017-11-03T05:34:05.413Z,21.6
2017-11-03T05:36:10.273Z,21.6
2017-11-03T05:38:05.059Z,21.6
2017-11-03T05:40:07.583Z,21.6
2017-11-03T05:42:08.121Z,21.6
2017-11-03T05:44:07.583Z,21.6
2017-11-03T05:46:05.384Z,21.6
2017-11-03T05:48:04.666Z,21.6
2017-11-03T05:50:05.504Z,21.6
2017-11-03T05:52:05.181Z,21.6
2017-11-03T05:54:04.964Z,21.6
2017-11-03T05:56:05.190Z,21.6
2017-11-03T05:58:04.883Z,21.7
2017-11-03T06:00:08.144Z,21.6
2017-11-03T06:02:07.409Z,21.6
2017-11-03T06:04:07.683Z,21.7
2017-11-03T06:06:05.029Z,21.7
2017-11-03T06:08:04.774Z,21.7
2017-11-03T06:10:05.501Z,21.7
2017-11-03T06:12:10.300Z,21.7
2017-11-03T06:14:05.007Z,21.7
2017-11-03T06:16:04.758Z,21.7
2017-11-03T06:18:07.178Z,21.7
2017-11-03T06:20:04.947Z,21.7
2017-11-03T06:22:07.199Z,21.7
2017-11-03T06:24:10.004Z,21.7
2017-11-03T06:26:04.838Z,21.7
2017-11-03T06:28:05.118Z,21.7
2017-11-03T06:30:05.392Z,21.7
2017-11-03T06:32:05.653Z,21.7
2017-11-03T06:34:05.424Z,21.7
2017-11-03T06:36:07.723Z,21.7
2017-11-03T06:38:05.428Z,21.7
2017-11-03T06:40:05.183Z,21.7
2017-11-03T06:42:07.416Z,21.7
2017-11-03T06:44:05.177Z,21.7
2017-11-03T06:46:04.913Z,21.7
2017-11-03T06:48:05.581Z,21.7
2017-11-03T06:50:04.797Z,21.7
2017-11-03T06:52:05.503Z,21.7
2017-11-03T06:54:05.235Z,21.7
2017-11-03T06:56:05.108Z,21.7
2017-11-03T06:58:04.803Z,21.7
2017-11-03T07:00:05.498Z,21.7
2017-11-03T07:02:05.251Z,21.7
2017-11-03T07:04:04.950Z,21.7
2017-11-03T07:06:05.184Z,21.7
2017-11-03T07:08:12.687Z,21.7
2017-11-03T07:10:04.919Z,21.7
2017-11-03T07:12:05.651Z,21.8
2017-11-03T07:14:05.294Z,21.7
2017-11-03T07:16:07.519Z,21.7
2017-11-03T07:18:05.453Z,21.7
2017-11-03T07:20:07.798Z,21.8
2017-11-03T07:22:05.488Z,21.8
2017-11-03T07:24:05.339Z,21.8
2017-11-03T07:26:18.043Z,21.8
2017-11-03T07:28:05.683Z,21.8
2017-11-03T07:30:05.443Z,21.8
2017-11-03T07:32:05.161Z,21.8
2017-11-03T07:34:04.855Z,21.8
2017-11-03T07:36:07.475Z,21.9
2017-11-03T07:38:05.221Z,21.9
2017-11-03T07:40:09.970Z,21.9
2017-11-03T07:42:04.699Z,21.9
2017-11-03T07:44:10.709Z,21.9
2017-11-03T07:46:05.378Z,22
2017-11-03T07:48:07.622Z,22
2017-11-03T07:50:10.519Z,22.1
2017-11-03T07:52:05.242Z,22.1
2017-11-03T07:54:05.060Z,22.1
2017-11-03T07:56:07.367Z,22.1
2017-11-03T07:58:05.327Z,22.1
2017-11-03T08:00:05.581Z,22.2
2017-11-03T08:02:05.410Z,22.2
2017-11-03T08:04:05.087Z,22.2
2017-11-03T08:06:04.820Z,22.2
2017-11-03T08:08:05.533Z,22.3
2017-11-03T08:10:07.817Z,22.3
2017-11-03T08:12:10.605Z,22.4
2017-11-03T08:14:05.340Z,22.3
2017-11-03T08:16:05.006Z,22.4
2017-11-03T08:18:04.924Z,22.4
2017-11-03T08:20:05.781Z,22.4
2017-11-03T08:22:04.724Z,22.4
2017-11-03T08:24:05.401Z,22.5
2017-11-03T08:26:05.128Z,22.5
2017-11-03T08:28:05.396Z,22.6
2017-11-03T08:30:05.166Z,22.6
2017-11-03T08:32:04.956Z,22.6
2017-11-03T08:34:07.221Z,22.7
2017-11-03T08:36:04.965Z,22.7
2017-11-03T08:38:04.751Z,22.8
2017-11-03T08:40:05.638Z,22.8
2017-11-03T08:42:05.396Z,22.9
2017-11-03T08:44:04.726Z,23
2017-11-03T08:46:05.457Z,23.1
2017-11-03T08:48:04.704Z,23.2
2017-11-03T08:50:07.959Z,23.2
2017-11-03T08:52:07.345Z,23.2
2017-11-03T08:54:05.067Z,23.1
2017-11-03T08:56:04.838Z,23.1
2017-11-03T08:58:09.657Z,23
2017-11-03T09:00:05.368Z,23.1
2017-11-03T09:02:05.072Z,23
2017-11-03T09:04:07.513Z,23
2017-11-03T09:06:10.301Z,23
2017-11-03T09:08:05.124Z,23
2017-11-03T09:10:04.845Z,23
2017-11-03T09:12:05.644Z,23
2017-11-03T09:14:05.608Z,23.1
2017-11-03T09:16:04.948Z,23.1
2017-11-03T09:18:04.942Z,23.3
2017-11-03T09:20:05.252Z,23.4
2017-11-03T09:22:04.977Z,23.4
2017-11-03T09:24:05.204Z,23.4
2017-11-03T09:26:05.438Z,23.4
2017-11-03T09:28:05.183Z,23.4
2017-11-03T09:30:04.902Z,23.3
2017-11-03T09:32:05.123Z,23.2
2017-11-03T09:34:05.098Z,23.1
2017-11-03T09:36:04.920Z,23.1
2017-11-03T09:38:05.705Z,23
2017-11-03T09:40:04.997Z,23
2017-11-03T09:42:04.693Z,22.9
2017-11-03T09:44:08.061Z,22.8
2017-11-03T09:46:07.352Z,22.8
2017-11-03T09:48:05.620Z,22.8
2017-11-03T09:50:05.370Z,22.8
2017-11-03T09:52:04.812Z,22.8
2017-11-03T09:54:08.013Z,22.8
2017-11-03T09:56:07.555Z,22.7
2017-11-03T09:58:05.363Z,22.7
2017-11-03T10:00:07.913Z,22.7
2017-11-03T10:02:04.706Z,22.7
2017-11-03T10:04:04.936Z,22.7
2017-11-03T10:06:04.653Z,22.7
2017-11-03T10:08:05.409Z,22.6
2017-11-03T10:10:05.361Z,22.7
2017-11-03T10:12:05.555Z,22.7
2017-11-03T10:14:06.734Z,22.7
2017-11-03T10:16:05.564Z,22.7
2017-11-03T10:18:08.126Z,22.7
2017-11-03T10:20:12.377Z,22.8
2017-11-03T10:22:05.638Z,22.8
2017-11-03T10:24:10.562Z,22.7
2017-11-03T10:26:05.257Z,22.7
2017-11-03T10:28:05.593Z,22.7
2017-11-03T10:30:05.328Z,22.8
2017-11-03T10:32:05.070Z,22.7
2017-11-03T10:34:07.331Z,22.7
2017-11-03T10:36:05.337Z,22.7
2017-11-03T10:38:08.056Z,22.7
2017-11-03T10:40:04.716Z,22.7
2017-11-03T10:42:04.694Z,22.7
2017-11-03T10:44:07.950Z,22.7
2017-11-03T10:46:14.771Z,22.7
2017-11-03T10:48:07.534Z,22.7
2017-11-03T10:50:10.359Z,22.7
2017-11-03T10:52:05.281Z,22.7
2017-11-03T10:54:10.032Z,22.7
2017-11-03T10:56:07.420Z,22.7
2017-11-03T10:58:05.338Z,22.7
2017-11-03T11:00:07.860Z,22.7
2017-11-03T11:02:04.807Z,22.7
2017-11-03T11:04:04.997Z,22.6
2017-11-03T11:06:04.919Z,22.6
2017-11-03T11:08:05.365Z,22.6
2017-11-03T11:10:05.602Z,22.6
2017-11-03T11:12:07.817Z,22.6
2017-11-03T11:14:05.625Z,22.6
2017-11-03T11:16:13.457Z,22.6
2017-11-03T11:18:05.435Z,22.6
2017-11-03T11:20:05.229Z,22.6
2017-11-03T11:22:10.034Z,22.5
2017-11-03T11:24:04.699Z,22.5
2017-11-03T11:26:05.035Z,22.5
2017-11-03T11:28:04.954Z,22.6
2017-11-03T11:30:06.192Z,22.5
2017-11-03T11:32:05.569Z,22.5
2017-11-03T11:34:07.903Z,22.5
2017-11-03T11:36:05.213Z,22.5
2017-11-03T11:38:05.018Z,22.5
2017-11-03T11:40:04.704Z,22.5
2017-11-03T11:42:10.454Z,22.5
2017-11-03T11:44:10.255Z,22.4
2017-11-03T11:46:05.008Z,22.4
2017-11-03T11:48:04.734Z,22.4
2017-11-03T11:50:05.460Z,22.5
2017-11-03T11:52:12.496Z,22.4
2017-11-03T11:54:05.481Z,22.4
2017-11-03T11:56:06.310Z,22.4
2017-11-03T11:58:10.167Z,22.4
2017-11-03T12:00:05.873Z,22.4
2017-11-03T12:02:08.117Z,22.4
2017-11-03T12:04:04.875Z,22.4
2017-11-03T12:06:05.560Z,22.4
2017-11-03T12:08:08.119Z,22.4
2017-11-03T12:10:07.569Z,22.3
2017-11-03T12:12:07.811Z,22.4
2017-11-03T12:14:05.820Z,22.3
2017-11-03T12:16:05.328Z,22.3
2017-11-03T12:18:04.756Z,22.3
2017-11-03T12:20:07.357Z,22.3
2017-11-03T12:22:05.090Z,22.3
2017-11-03T12:24:07.345Z,22.3
2017-11-03T12:26:05.077Z,22.3
2017-11-03T12:28:07.620Z,22.3
2017-11-03T12:30:05.393Z,22.3
2017-11-03T12:32:05.103Z,22.3
2017-11-03T12:34:05.802Z,22.2
2017-11-03T12:36:07.350Z,22.2
2017-11-03T12:38:05.073Z,22.2
2017-11-03T12:40:05.306Z,22.2
2017-11-03T12:42:05.212Z,22.2
2017-11-03T12:44:04.927Z,22.3
2017-11-03T12:46:10.574Z,22.3
2017-11-03T12:48:05.162Z,22.3
2017-11-03T12:50:05.652Z,22.3
2017-11-03T12:52:10.478Z,22.3
2017-11-03T12:54:05.365Z,22.3
2017-11-03T12:56:07.664Z,22.3
2017-11-03T12:58:07.912Z,22.3
2017-11-03T13:00:04.638Z,22.3
2017-11-03T13:02:05.252Z,22.3
2017-11-03T13:04:07.711Z,22.3
2017-11-03T13:06:07.147Z,22.3
2017-11-03T13:08:07.564Z,22.2
2017-11-03T13:10:06.214Z,22.2
2017-11-03T13:12:07.475Z,22.3
2017-11-03T13:14:05.331Z,22.2
2017-11-03T13:16:05.220Z,22.2
2017-11-03T13:18:05.283Z,22.2
2017-11-03T13:20:05.042Z,22.2
2017-11-03T13:22:07.280Z,22.2
2017-11-03T13:24:04.980Z,22.2
2017-11-03T13:26:04.818Z,22.2
2017-11-03T13:28:08.051Z,22.3
2017-11-03T13:30:04.804Z,22.2
2017-11-03T13:32:05.534Z,22.2
2017-11-03T13:34:05.263Z,22.3
2017-11-03T13:36:05.004Z,22.2
2017-11-03T13:38:04.724Z,22.3
2017-11-03T13:40:05.439Z,22.3
2017-11-03T13:42:07.725Z,22.3
2017-11-03T13:44:05.480Z,22.3
2017-11-03T13:46:05.192Z,22.3
2017-11-03T13:48:05.132Z,22.3
2017-11-03T13:50:04.879Z,22.3
2017-11-03T13:52:04.636Z,22.3
2017-11-03T13:54:05.358Z,22.3
2017-11-03T13:56:07.888Z,22.3
2017-11-03T13:58:05.608Z,22.3
2017-11-03T14:00:05.320Z,22.3
2017-11-03T14:02:07.574Z,22.3
2017-11-03T14:04:10.337Z,22.3
2017-11-03T14:06:05.083Z,22.3
2017-11-03T14:08:04.803Z,22.4
2017-11-03T14:10:05.607Z,22.4
2017-11-03T14:12:07.911Z,22.4
2017-11-03T14:14:07.692Z,22.4
2017-11-03T14:16:05.416Z,22.4
2017-11-03T14:18:05.353Z,22.4
2017-11-03T14:20:05.107Z,22.4
2017-11-03T14:22:05.064Z,22.4
2017-11-03T14:24:04.745Z,22.5
2017-11-03T14:26:05.628Z,22.5
2017-11-03T14:28:05.356Z,22.5
2017-11-03T14:30:07.618Z,22.4
2017-11-03T14:32:05.323Z,22.5
2017-11-03T14:34:07.650Z,22.4
2017-11-03T14:36:04.905Z,22.4
2017-11-03T14:38:05.608Z,22.5
2017-11-03T14:40:07.836Z,22.5
2017-11-03T14:42:05.188Z,22.5
2017-11-03T14:44:07.432Z,22.4
2017-11-03T14:46:05.140Z,22.4
2017-11-03T14:48:04.860Z,22.5
2017-11-03T14:50:05.106Z,22.5
2017-11-03T14:52:07.338Z,22.5
2017-11-03T14:54:10.133Z,22.5
2017-11-03T14:56:04.867Z,22.5
2017-11-03T14:58:05.599Z,22.5
2017-11-03T15:00:05.287Z,22.5
2017-11-03T15:02:04.982Z,22.5
2017-11-03T15:04:04.958Z,22.5
2017-11-03T15:06:04.638Z,22.5
2017-11-03T15:08:05.315Z,22.5
2017-11-03T15:10:07.665Z,22.5
2017-11-03T15:12:05.383Z,22.4
2017-11-03T15:14:05.235Z,22.5
2017-11-03T15:16:04.989Z,22.5
2017-11-03T15:18:04.914Z,22.5
2017-11-03T15:20:04.894Z,22.5
2017-11-03T15:22:05.681Z,22.5
2017-11-03T15:24:07.547Z,22.5
2017-11-03T15:26:10.397Z,22.5
2017-11-03T15:28:07.597Z,22.5
2017-11-03T15:30:05.311Z,22.5
2017-11-03T15:32:05.620Z,22.5
2017-11-03T15:34:04.878Z,22.5
2017-11-03T15:36:08.178Z,22.5
2017-11-03T15:38:05.386Z,22.4
2017-11-03T15:40:07.678Z,22.4
2017-11-03T15:42:05.526Z,22.4
2017-11-03T15:44:07.866Z,22.4
2017-11-03T15:46:07.174Z,22.4
2017-11-03T15:48:04.916Z,22.4
2017-11-03T15:50:05.175Z,22.4
2017-11-03T15:52:07.451Z,22.4
2017-11-03T15:54:04.711Z,22.4
2017-11-03T15:56:08.008Z,22.4
2017-11-03T15:58:04.694Z,22.4
2017-11-03T16:00:05.484Z,22.4
2017-11-03T16:02:05.195Z,22.4
2017-11-03T16:04:04.884Z,22.4
2017-11-03T16:06:05.643Z,22.4
2017-11-03T16:08:07.914Z,22.4
2017-11-03T16:10:07.704Z,22.4
2017-11-03T16:12:04.940Z,22.4
2017-11-03T16:14:07.227Z,22.4
2017-11-03T16:16:05.193Z,22.4
2017-11-03T16:18:04.699Z,22.4
2017-11-03T16:20:05.408Z,22.4
2017-11-03T16:22:07.638Z,22.4
2017-11-03T16:24:04.794Z,22.4
2017-11-03T16:26:05.521Z,22.4
2017-11-03T16:28:07.745Z,22.3
2017-11-03T16:30:05.714Z,22.3
2017-11-03T16:32:04.832Z,22.3
2017-11-03T16:34:04.642Z,22.3
2017-11-03T16:36:05.169Z,22.3
2017-11-03T16:38:05.270Z,22.3
2017-11-03T16:40:07.759Z,22.3
2017-11-03T16:42:05.476Z,22.3
2017-11-03T16:44:05.207Z,22.3
2017-11-03T16:46:04.992Z,22.3
2017-11-03T16:48:12.346Z,22.3
2017-11-03T16:50:05.387Z,22.3
2017-11-03T16:52:10.167Z,22.3
2017-11-03T16:54:08.014Z,22.3
2017-11-03T16:56:07.698Z,22.3
2017-11-03T16:58:05.078Z,22.3
2017-11-03T17:00:05.476Z,22.3
2017-11-03T17:02:07.320Z,22.3
2017-11-03T17:04:05.194Z,22.3
2017-11-03T17:06:06.751Z,22.4
2017-11-03T17:08:05.559Z,22.3
2017-11-03T17:10:05.343Z,22.3
2017-11-03T17:12:05.132Z,22.3
2017-11-03T17:14:09.759Z,22.3
2017-11-03T17:16:05.477Z,22.3
2017-11-03T17:18:05.411Z,22.3
2017-11-03T17:20:04.922Z,22.3
2017-11-03T17:22:07.178Z,22.3
2017-11-03T17:24:12.510Z,22.3
2017-11-03T17:26:05.290Z,22.3
2017-11-03T17:28:10.149Z,22.3
2017-11-03T17:30:07.368Z,22.4
2017-11-03T17:32:05.085Z,22.4
2017-11-03T17:34:07.911Z,22.4
2017-11-03T17:36:04.658Z,22.4
2017-11-03T17:38:06.031Z,22.4
2017-11-03T17:40:04.741Z,22.4
2017-11-03T17:42:07.559Z,22.4
2017-11-03T17:44:07.893Z,22.4
2017-11-03T17:46:05.582Z,22.4
2017-11-03T17:48:05.279Z,22.3
2017-11-03T17:50:05.051Z,22.3
2017-11-03T17:52:04.760Z,22.3
2017-11-03T17:54:05.474Z,22.3
2017-11-03T17:56:07.793Z,22.3
2017-11-03T17:58:05.492Z,22.3
2017-11-03T18:00:05.197Z,22.3
2017-11-03T18:02:05.173Z,22.3
2017-11-03T18:04:04.881Z,22.3
2017-11-03T18:06:12.290Z,22.3
2017-11-03T18:08:07.606Z,22.3
2017-11-03T18:10:05.393Z,22.3
2017-11-03T18:12:05.432Z,22.3
2017-11-03T18:14:06.186Z,22.3
2017-11-03T18:16:05.097Z,22.3
2017-11-03T18:18:07.849Z,22.3
2017-11-03T18:20:05.594Z,22.3
2017-11-03T18:22:05.335Z,22.3
2017-11-03T18:24:08.084Z,22.3
2017-11-03T18:26:04.852Z,22.3
2017-11-03T18:28:04.975Z,22.3
2017-11-03T18:30:04.974Z,22.3
2017-11-03T18:32:07.308Z,22.3
2017-11-03T18:34:10.201Z,22.3
2017-11-03T18:36:05.347Z,22.3
2017-11-03T18:38:07.778Z,22.4
2017-11-03T18:40:05.533Z,22.4
2017-11-03T18:42:11.301Z,22.3
2017-11-03T18:44:10.261Z,22.3
2017-11-03T18:46:07.429Z,22.3
2017-11-03T18:48:05.281Z,22.3
2017-11-03T18:50:04.917Z,22.3
2017-11-03T18:52:07.266Z,22.3
2017-11-03T18:54:05.088Z,22.3
2017-11-03T18:56:07.402Z,22.2
2017-11-03T18:58:05.082Z,22.3
2017-11-03T19:00:04.986Z,22.2
2017-11-03T19:02:04.877Z,22.3
2017-11-03T19:04:05.651Z,22.3
2017-11-03T19:06:05.361Z,22.3
2017-11-03T19:08:05.208Z,22.3
2017-11-03T19:10:07.535Z,22.2
2017-11-03T19:12:07.767Z,22.2
2017-11-03T19:14:15.654Z,22.3
2017-11-03T19:16:04.830Z,22.3
2017-11-03T19:18:05.288Z,22.3
2017-11-03T19:20:05.022Z,22.2
2017-11-03T19:22:05.752Z,22.2
2017-11-03T19:24:10.746Z,22.2
2017-11-03T19:26:04.972Z,22.2
2017-11-03T19:28:06.039Z,22.2
2017-11-03T19:30:05.400Z,22.2
2017-11-03T19:32:05.389Z,22.2
2017-11-03T19:34:05.648Z,22.2
2017-11-03T19:36:07.890Z,22.1
2017-11-03T19:38:05.782Z,22.1
2017-11-03T19:40:05.143Z,22.1
2017-11-03T19:42:11.970Z,22.1
2017-11-03T19:44:04.872Z,22.1
2017-11-03T19:46:23.282Z,22.2
2017-11-03T19:48:08.395Z,22.2
2017-11-03T19:50:05.534Z,22.2
2017-11-03T19:52:07.944Z,22.2
2017-11-03T19:54:12.297Z,22.2
2017-11-03T19:56:12.611Z,22.2
2017-11-03T19:58:04.839Z,22.2
2017-11-03T20:00:05.582Z,22.1
2017-11-03T20:02:07.491Z,22.1
2017-11-03T20:04:07.178Z,22.1
2017-11-03T20:06:04.880Z,22.1
2017-11-03T20:08:05.685Z,22.1
2017-11-03T20:10:10.471Z,22.1
2017-11-03T20:12:07.836Z,22.1
2017-11-03T20:14:05.586Z,22.1
2017-11-03T20:16:05.513Z,22.1
2017-11-03T20:18:07.178Z,22.1
2017-11-03T20:20:04.910Z,22.1
2017-11-03T20:22:05.605Z,22.1
2017-11-03T20:24:05.322Z,22.1
2017-11-03T20:26:12.475Z,22.1
2017-11-03T20:28:07.862Z,22.1
2017-11-03T20:30:05.244Z,22.1
2017-11-03T20:32:05.075Z,22.1
2017-11-03T20:34:05.008Z,22.1
2017-11-03T20:36:04.861Z,22.1
2017-11-03T20:38:05.701Z,22.1
2017-11-03T20:40:05.391Z,22.1
2017-11-03T20:42:05.142Z,22.1
2017-11-03T20:44:04.880Z,22.1
2017-11-03T20:46:05.094Z,22.1
2017-11-03T20:48:04.804Z,22.1
2017-11-03T20:50:23.354Z,22
2017-11-03T20:52:05.105Z,22
2017-11-03T20:54:04.782Z,22.1
2017-11-03T20:56:05.553Z,22.1
2017-11-03T20:58:05.265Z,22.1
2017-11-03T21:00:10.051Z,22.1
2017-11-03T21:02:04.822Z,22.1
2017-11-03T21:04:05.026Z,22.1
2017-11-03T21:06:05.302Z,22.1
2017-11-03T21:08:05.068Z,22.1
2017-11-03T21:10:07.337Z,22.1
2017-11-03T21:12:07.626Z,22.1
2017-11-03T21:14:07.913Z,22.1
2017-11-03T21:16:05.589Z,22.1
2017-11-03T21:18:05.536Z,22.1
2017-11-03T21:20:10.026Z,22.1
2017-11-03T21:22:07.255Z,22.1
2017-11-03T21:24:04.986Z,22.1
2017-11-03T21:26:04.830Z,22.1
2017-11-03T21:28:05.529Z,22.1
2017-11-03T21:30:04.732Z,22.1
2017-11-03T21:32:10.544Z,22.1
2017-11-03T21:34:07.402Z,22.1
2017-11-03T21:36:05.107Z,22.1
2017-11-03T21:38:04.874Z,22.1
2017-11-03T21:40:05.613Z,22.1
2017-11-03T21:42:10.378Z,22.2
2017-11-03T21:44:05.123Z,22.2
2017-11-03T21:46:10.008Z,22.2
2017-11-03T21:48:04.784Z,22.2
2017-11-03T21:50:05.653Z,22.2
2017-11-03T21:52:05.449Z,22.2
2017-11-03T21:54:06.125Z,22.2
2017-11-03T21:56:04.740Z,22.2
2017-11-03T21:58:08.046Z,22.2
2017-11-03T22:00:04.818Z,22.2
2017-11-03T22:02:05.533Z,22.2
2017-11-03T22:04:05.230Z,22.2
2017-11-03T22:06:04.932Z,22.2
2017-11-03T22:08:07.190Z,22.2
2017-11-03T22:10:10.033Z,22.2
2017-11-03T22:12:05.238Z,22.2
2017-11-03T22:14:05.047Z,22.2
2017-11-03T22:16:04.885Z,22.2
2017-11-03T22:18:09.884Z,22.2
2017-11-03T22:20:07.569Z,22.2
2017-11-03T22:22:05.446Z,22.2
2017-11-03T22:24:05.604Z,22.2
2017-11-03T22:26:10.552Z,22.2
2017-11-03T22:28:05.470Z,22.2
2017-11-03T22:30:07.745Z,22.3
2017-11-03T22:32:05.478Z,22.2
2017-11-03T22:34:05.244Z,22.3
2017-11-03T22:36:07.483Z,22.3
2017-11-03T22:38:07.811Z,22.3
2017-11-03T22:40:05.526Z,22.3
2017-11-03T22:42:12.405Z,22.3
2017-11-03T22:44:04.655Z,22.2
2017-11-03T22:46:07.900Z,22.3
2017-11-03T22:48:05.879Z,22.3
2017-11-03T22:50:10.371Z,22.3
2017-11-03T22:52:05.166Z,22.3
2017-11-03T22:54:05.492Z,22.3
2017-11-03T22:56:05.313Z,22.3
2017-11-03T22:58:04.987Z,22.3
2017-11-03T23:00:07.248Z,22.3
2017-11-03T23:02:05.400Z,22.3
2017-11-03T23:04:05.081Z,22.2
2017-11-03T23:06:04.838Z,22.3
2017-11-03T23:08:05.620Z,22.3
2017-11-03T23:10:05.433Z,22.2
2017-11-03T23:12:05.576Z,22.2
2017-11-03T23:14:05.368Z,22.3
2017-11-03T23:16:06.106Z,22.3
2017-11-03T23:18:05.039Z,22.3
2017-11-03T23:20:04.775Z,22.3
2017-11-03T23:22:07.247Z,22.3
2017-11-03T23:24:09.998Z,22.2
2017-11-03T23:26:04.985Z,22.3
2017-11-03T23:28:05.431Z,22.3
2017-11-03T23:30:07.705Z,22.2
2017-11-03T23:32:05.608Z,22.2
2017-11-03T23:34:07.365Z,22.3
2017-11-03T23:36:05.030Z,22.3
2017-11-03T23:38:04.780Z,22.2
2017-11-03T23:40:05.439Z,22.3
2017-11-03T23:42:05.207Z,22.2
2017-11-03T23:44:04.923Z,22.2
2017-11-03T23:46:04.650Z,22.2
2017-11-03T23:48:05.895Z,22.2
2017-11-03T23:50:04.849Z,22.2
2017-11-03T23:52:05.540Z,22.2
2017-11-03T23:54:07.784Z,22.2
2017-11-03T23:56:04.750Z,22.2
2017-11-03T23:58:07.978Z,22.2
